createdAt,value
2023-05-24T00:00:42.610Z,14.10
2023-05-24T00:03:10.903Z,14.10
2023-05-24T00:05:41.193Z,14.10
2023-05-24T00:08:09.315Z,14.10
2023-05-24T00:10:37.305Z,14.10
2023-05-24T00:13:06.389Z,14.20
2023-05-24T00:15:35.739Z,14.20
2023-05-24T00:18:03.816Z,14.20
2023-05-24T00:20:31.974Z,14.20
2023-05-24T00:23:00.014Z,14.20
2023-05-24T00:25:28.064Z,14.20
2023-05-24T00:27:56.447Z,14.20
2023-05-24T00:30:27.030Z,14.20
2023-05-24T00:32:58.255Z,14.20
2023-05-24T00:35:26.435Z,14.20
2023-05-24T00:37:54.864Z,14.20
2023-05-24T00:40:22.955Z,14.30
2023-05-24T00:42:51.668Z,14.30
2023-05-24T00:45:19.965Z,14.60
2023-05-24T00:47:48.483Z,14.40
2023-05-24T00:50:18.478Z,14.30
2023-05-24T00:52:48.613Z,14.30
2023-05-24T00:55:17.151Z,14.30
2023-05-24T00:57:46.040Z,14.30
2023-05-24T01:00:14.931Z,14.30
2023-05-24T01:02:43.811Z,14.30
2023-05-24T01:05:13.642Z,14.30
2023-05-24T01:07:55.511Z,14.40
2023-05-24T01:10:36.686Z,14.20
2023-05-24T01:13:15.077Z,14.20
2023-05-24T01:15:50.613Z,14.20
2023-05-24T01:18:30.393Z,14.20
2023-05-24T01:21:12.833Z,14.20
2023-05-24T01:23:53.217Z,14.20
2023-05-24T01:26:39.337Z,14.10
2023-05-24T01:29:09.479Z,14.10
2023-05-24T01:31:39.568Z,14.10
2023-05-24T01:34:08.137Z,14.20
2023-05-24T01:36:36.335Z,14.10
2023-05-24T01:39:05.648Z,14.10
2023-05-24T01:41:42.343Z,14.20
2023-05-24T01:44:23.378Z,14.10
2023-05-24T01:47:03.296Z,14.10
2023-05-24T01:49:39.395Z,14.10
2023-05-24T01:52:13.554Z,14.00
2023-05-24T01:54:47.757Z,14.00
2023-05-24T01:57:16.825Z,14.00
2023-05-24T01:59:47.211Z,13.90
2023-05-24T02:02:15.806Z,13.90
2023-05-24T02:04:44.399Z,13.90
2023-05-24T02:07:13.348Z,13.90
2023-05-24T02:09:41.397Z,13.90
2023-05-24T02:12:11.575Z,13.90
2023-05-24T02:14:42.785Z,13.90
2023-05-24T02:17:12.388Z,13.90
2023-05-24T02:19:40.529Z,13.90
2023-05-24T02:22:08.575Z,13.90
2023-05-24T02:24:40.310Z,13.90
2023-05-24T02:27:08.668Z,13.90
2023-05-24T02:29:41.868Z,13.90
2023-05-24T02:32:10.192Z,13.90
2023-05-24T02:34:40.098Z,13.90
2023-05-24T02:37:08.115Z,13.90
2023-05-24T02:39:36.348Z,13.90
2023-05-24T02:42:05.923Z,13.90
2023-05-24T02:44:34.087Z,13.90
2023-05-24T02:47:02.178Z,13.90
2023-05-24T02:49:30.224Z,13.90
2023-05-24T02:51:59.884Z,13.90
2023-05-24T02:54:27.960Z,13.90
2023-05-24T02:56:56.708Z,13.80
2023-05-24T02:59:27.984Z,13.80
2023-05-24T03:01:56.491Z,13.80
2023-05-24T03:04:26.946Z,13.80
2023-05-24T03:06:56.338Z,13.80
2023-05-24T03:09:25.786Z,13.80
2023-05-24T03:11:54.589Z,13.80
2023-05-24T03:14:24.885Z,13.70
2023-05-24T03:16:53.096Z,13.70
2023-05-24T03:19:21.598Z,13.70
2023-05-24T03:21:49.952Z,13.70
2023-05-24T03:24:19.338Z,13.60
2023-05-24T03:26:48.841Z,13.60
2023-05-24T03:29:17.690Z,13.60
2023-05-24T03:31:46.429Z,13.50
2023-05-24T03:34:14.707Z,13.50
2023-05-24T03:36:43.320Z,13.50
2023-05-24T03:39:11.682Z,13.50
2023-05-24T03:42:04.212Z,13.50
2023-05-24T03:44:33.295Z,13.40
2023-05-24T03:47:02.454Z,13.40
2023-05-24T03:49:31.060Z,13.40
2023-05-24T03:51:59.375Z,13.40
2023-05-24T03:54:27.417Z,13.40
2023-05-24T03:56:55.461Z,13.40
2023-05-24T03:59:24.859Z,13.40
2023-05-24T04:01:52.985Z,13.40
2023-05-24T04:04:21.271Z,13.30
2023-05-24T04:06:49.773Z,13.40
2023-05-24T04:09:18.036Z,13.30
2023-05-24T04:11:46.916Z,13.30
2023-05-24T04:14:15.014Z,13.30
2023-05-24T04:16:44.929Z,13.20
2023-05-24T04:19:13.352Z,13.20
2023-05-24T04:21:41.826Z,13.20
2023-05-24T04:24:09.927Z,13.20
2023-05-24T04:26:38.311Z,13.20
2023-05-24T04:29:07.794Z,13.20
2023-05-24T04:31:36.614Z,13.70
2023-05-24T04:34:07.799Z,13.20
2023-05-24T04:36:36.362Z,13.20
2023-05-24T04:39:05.264Z,13.20
2023-05-24T04:41:37.429Z,13.30
2023-05-24T04:44:07.892Z,13.30
2023-05-24T04:46:36.971Z,13.20
2023-05-24T04:49:08.467Z,13.70
2023-05-24T04:51:38.798Z,13.30
2023-05-24T04:54:10.351Z,13.30
2023-05-24T04:56:41.093Z,13.30
2023-05-24T04:59:09.926Z,13.30
2023-05-24T05:01:38.099Z,13.30
2023-05-24T05:04:07.922Z,13.30
2023-05-24T05:06:38.909Z,13.30
2023-05-24T05:09:09.494Z,13.30
2023-05-24T05:11:40.553Z,13.40
2023-05-24T05:14:10.289Z,13.40
2023-05-24T05:16:39.256Z,13.40
2023-05-24T05:19:09.016Z,13.30
2023-05-24T05:21:39.740Z,13.30
2023-05-24T05:24:12.930Z,13.30
2023-05-24T05:26:44.315Z,13.70
2023-05-24T05:29:12.488Z,13.40
2023-05-24T05:31:40.888Z,13.40
2023-05-24T05:34:12.875Z,13.40
2023-05-24T05:36:42.563Z,13.90
2023-05-24T05:39:11.485Z,13.40
2023-05-24T05:41:45.945Z,13.40
2023-05-24T05:44:15.246Z,13.30
2023-05-24T05:46:44.092Z,14.40
2023-05-24T05:49:15.238Z,13.40
2023-05-24T05:51:43.702Z,13.40
2023-05-24T05:54:15.462Z,13.40
2023-05-24T05:56:47.896Z,13.40
2023-05-24T05:59:16.667Z,13.50
2023-05-24T06:01:47.053Z,13.50
2023-05-24T06:04:16.795Z,13.50
2023-05-24T06:06:45.307Z,13.50
2023-05-24T06:09:13.350Z,13.50
2023-05-24T06:11:44.728Z,13.50
2023-05-24T06:14:13.271Z,13.50
2023-05-24T06:16:43.531Z,13.50
2023-05-24T06:19:11.760Z,13.60
2023-05-24T06:21:47.169Z,13.60
2023-05-24T06:24:15.920Z,13.60
2023-05-24T06:26:44.431Z,13.60
2023-05-24T06:29:12.410Z,13.60
2023-05-24T06:31:40.498Z,13.60
2023-05-24T06:34:08.583Z,13.70
2023-05-24T06:36:42.852Z,13.70
2023-05-24T06:39:13.612Z,13.70
2023-05-24T06:41:42.280Z,13.80
2023-05-24T06:44:10.308Z,13.80
2023-05-24T06:46:38.522Z,13.80
2023-05-24T06:49:06.987Z,13.90
2023-05-24T06:51:35.129Z,13.90
2023-05-24T06:54:03.317Z,14.00
2023-05-24T06:56:33.018Z,14.00
2023-05-24T06:59:01.107Z,14.10
2023-05-24T07:01:29.502Z,14.10
2023-05-24T07:03:57.945Z,14.20
2023-05-24T07:06:27.013Z,14.10
2023-05-24T07:08:55.068Z,14.20
2023-05-24T07:11:23.082Z,14.20
2023-05-24T07:13:52.420Z,14.20
2023-05-24T07:16:20.686Z,14.20
2023-05-24T07:18:48.727Z,14.20
2023-05-24T07:21:16.786Z,14.20
2023-05-24T07:23:44.844Z,14.20
2023-05-24T07:26:12.851Z,14.20
2023-05-24T07:28:41.485Z,14.30
2023-05-24T07:31:11.623Z,14.30
2023-05-24T07:33:39.800Z,14.30
2023-05-24T07:36:08.826Z,14.40
2023-05-24T07:38:37.023Z,14.40
2023-05-24T07:41:06.215Z,14.40
2023-05-24T07:43:34.267Z,14.50
2023-05-24T07:46:02.325Z,14.50
2023-05-24T07:48:31.697Z,14.50
2023-05-24T07:50:59.737Z,14.50
2023-05-24T07:53:27.772Z,14.60
2023-05-24T07:55:56.428Z,14.60
2023-05-24T07:58:24.566Z,14.60
2023-05-24T08:00:53.237Z,14.60
2023-05-24T08:03:21.621Z,14.60
2023-05-24T08:05:51.525Z,14.60
2023-05-24T08:08:19.596Z,14.70
2023-05-24T08:10:49.741Z,14.70
2023-05-24T08:13:17.781Z,14.70
2023-05-24T08:15:46.079Z,14.80
2023-05-24T08:18:14.278Z,14.80
2023-05-24T08:20:42.355Z,14.90
2023-05-24T08:23:11.784Z,14.90
2023-05-24T08:25:41.146Z,15.00
2023-05-24T08:28:10.726Z,15.10
2023-05-24T08:30:38.891Z,15.20
2023-05-24T08:33:07.015Z,15.20
2023-05-24T08:35:35.970Z,15.30
2023-05-24T08:38:03.996Z,15.40
2023-05-24T08:40:33.320Z,15.40
2023-05-24T08:43:02.813Z,15.40
2023-05-24T08:45:32.327Z,15.50
2023-05-24T08:48:01.220Z,15.60
2023-05-24T08:50:30.135Z,15.70
2023-05-24T08:53:01.994Z,15.80
2023-05-24T08:55:33.495Z,15.90
2023-05-24T08:58:02.102Z,16.00
2023-05-24T09:00:30.077Z,16.10
2023-05-24T09:03:00.007Z,16.20
2023-05-24T09:05:30.254Z,16.30
2023-05-24T09:08:01.206Z,16.30
2023-05-24T09:10:41.310Z,16.40
2023-05-24T09:13:20.859Z,16.50
2023-05-24T09:15:48.919Z,16.60
2023-05-24T09:18:17.050Z,16.60
2023-05-24T09:20:45.435Z,16.70
2023-05-24T09:23:14.597Z,16.70
2023-05-24T09:25:45.125Z,16.80
2023-05-24T09:28:15.914Z,16.90
2023-05-24T09:30:47.516Z,16.90
2023-05-24T09:33:15.581Z,17.00
2023-05-24T09:35:44.483Z,17.10
2023-05-24T09:38:19.453Z,17.10
2023-05-24T09:40:47.790Z,17.10
2023-05-24T09:43:15.821Z,17.20
2023-05-24T09:45:46.766Z,17.20
2023-05-24T09:48:17.283Z,17.30
2023-05-24T09:50:47.468Z,17.40
2023-05-24T09:53:19.237Z,17.40
2023-05-24T09:55:47.360Z,17.40
2023-05-24T09:58:17.983Z,17.50
2023-05-24T10:00:47.756Z,17.60
2023-05-24T10:03:16.298Z,17.60
2023-05-24T10:05:46.735Z,17.60
2023-05-24T10:08:15.268Z,17.70
2023-05-24T10:10:44.251Z,17.70
2023-05-24T10:13:15.730Z,17.70
2023-05-24T10:15:44.945Z,17.80
2023-05-24T10:18:14.753Z,17.80
2023-05-24T10:20:44.394Z,17.90
2023-05-24T10:23:21.587Z,18.00
2023-05-24T10:25:54.108Z,18.20
2023-05-24T10:28:25.072Z,18.30
2023-05-24T10:31:05.873Z,18.50
2023-05-24T10:33:38.388Z,18.60
2023-05-24T10:36:10.053Z,18.70
2023-05-24T10:38:40.695Z,18.80
2023-05-24T10:41:09.561Z,18.80
2023-05-24T10:43:38.845Z,18.80
2023-05-24T10:46:10.803Z,18.80
2023-05-24T10:48:41.516Z,18.80
2023-05-24T10:51:33.840Z,18.80
2023-05-24T10:54:19.685Z,18.80
2023-05-24T10:56:49.873Z,18.80
2023-05-24T10:59:29.984Z,18.80
2023-05-24T11:02:00.820Z,18.90
2023-05-24T11:04:35.053Z,19.00
2023-05-24T11:07:05.300Z,19.10
2023-05-24T11:09:34.923Z,19.20
2023-05-24T11:12:07.382Z,19.30
2023-05-24T11:14:40.396Z,19.30
2023-05-24T11:17:09.181Z,19.30
2023-05-24T11:19:46.071Z,19.30
2023-05-24T11:22:16.144Z,19.40
2023-05-24T11:24:45.017Z,19.50
2023-05-24T11:27:14.615Z,19.60
2023-05-24T11:29:44.513Z,19.70
2023-05-24T11:32:16.945Z,19.70
2023-05-24T11:34:47.716Z,19.80
2023-05-24T11:37:18.087Z,19.90
2023-05-24T11:39:51.826Z,20.10
2023-05-24T11:42:20.737Z,20.20
2023-05-24T11:44:50.946Z,20.30
2023-05-24T11:47:22.719Z,20.30
2023-05-24T11:49:53.250Z,20.40
2023-05-24T11:52:22.068Z,20.50
2023-05-24T11:54:50.873Z,20.50
2023-05-24T11:57:20.755Z,20.60
2023-05-24T11:59:50.239Z,20.60
2023-05-24T12:02:18.463Z,20.70
2023-05-24T12:04:47.423Z,20.70
2023-05-24T12:07:17.791Z,20.80
2023-05-24T12:09:46.676Z,20.80
2023-05-24T12:12:14.717Z,20.80
2023-05-24T12:14:42.758Z,20.80
2023-05-24T12:17:17.027Z,20.80
2023-05-24T12:19:45.129Z,20.80
2023-05-24T12:22:13.117Z,20.90
2023-05-24T12:24:42.617Z,21.00
2023-05-24T12:27:12.312Z,21.10
2023-05-24T12:29:42.638Z,21.10
2023-05-24T12:32:13.999Z,21.30
2023-05-24T12:34:43.374Z,21.30
2023-05-24T12:37:13.666Z,21.40
2023-05-24T12:39:44.683Z,21.40
2023-05-24T12:42:13.968Z,21.50
2023-05-24T12:44:42.894Z,21.50
2023-05-24T12:47:11.740Z,21.60
2023-05-24T12:49:40.048Z,21.60
2023-05-24T12:52:08.207Z,21.70
2023-05-24T12:54:36.252Z,21.70
2023-05-24T12:57:06.216Z,21.80
2023-05-24T12:59:34.947Z,21.90
2023-05-24T13:02:02.988Z,22.00
2023-05-24T13:04:35.988Z,22.10
2023-05-24T13:07:04.490Z,22.20
2023-05-24T13:09:34.217Z,22.30
2023-05-24T13:12:02.419Z,22.40
2023-05-24T13:14:31.772Z,22.50
2023-05-24T13:16:59.961Z,22.60
2023-05-24T13:19:27.991Z,22.60
2023-05-24T13:21:55.959Z,22.70
2023-05-24T13:24:24.201Z,22.70
2023-05-24T13:26:54.604Z,22.80
2023-05-24T13:29:36.764Z,22.70
2023-05-24T13:32:09.293Z,22.70
2023-05-24T13:34:37.325Z,22.70
2023-05-24T13:37:05.533Z,22.60
2023-05-24T13:39:33.623Z,22.60
2023-05-24T13:42:01.878Z,22.60
2023-05-24T13:44:30.610Z,22.60
2023-05-24T13:46:59.183Z,22.60
2023-05-24T13:49:29.057Z,22.70
2023-05-24T13:51:58.622Z,22.60
2023-05-24T13:54:27.774Z,22.60
2023-05-24T13:56:57.436Z,22.60
2023-05-24T13:59:25.677Z,22.60
2023-05-24T14:01:53.826Z,22.60
2023-05-24T14:04:22.013Z,22.50
2023-05-24T14:06:51.395Z,22.50
2023-05-24T14:09:21.289Z,22.60
2023-05-24T14:11:49.508Z,22.50
2023-05-24T14:16:51.694Z,22.60
2023-05-24T14:19:19.867Z,22.70
2023-05-24T14:21:47.827Z,22.70
2023-05-24T14:24:17.177Z,22.70
2023-05-24T14:26:47.491Z,22.80
2023-05-24T14:29:15.603Z,22.80
2023-05-24T14:31:44.033Z,22.80
2023-05-24T14:34:12.703Z,22.80
2023-05-24T14:36:41.889Z,22.80
2023-05-24T14:39:10.174Z,22.90
2023-05-24T14:41:39.524Z,22.80
2023-05-24T14:44:07.577Z,22.80
2023-05-24T14:46:35.889Z,22.80
2023-05-24T14:49:04.731Z,22.80
2023-05-24T14:51:32.795Z,22.80
2023-05-24T14:54:00.834Z,22.80
2023-05-24T14:56:29.000Z,22.80
2023-05-24T14:58:59.335Z,22.80
2023-05-24T15:01:27.635Z,22.80
2023-05-24T15:03:55.853Z,22.70
2023-05-24T15:06:24.026Z,22.70
2023-05-24T15:08:52.868Z,22.70
2023-05-24T15:11:20.908Z,22.70
2023-05-24T15:13:48.896Z,22.70
2023-05-24T15:16:18.313Z,22.70
2023-05-24T15:18:46.312Z,22.70
2023-05-24T15:21:14.339Z,22.80
2023-05-24T15:23:42.528Z,22.70
2023-05-24T15:26:10.619Z,22.70
2023-05-24T15:28:38.809Z,22.70
2023-05-24T15:31:06.954Z,22.70
2023-05-24T15:33:37.073Z,22.70
2023-05-24T15:36:05.656Z,22.60
2023-05-24T15:38:34.450Z,22.60
2023-05-24T15:41:03.766Z,22.60
2023-05-24T15:43:31.906Z,22.60
2023-05-24T15:45:59.898Z,22.60
2023-05-24T15:48:28.104Z,22.50
2023-05-24T15:51:47.061Z,22.60
2023-05-24T15:53:45.526Z,22.60
2023-05-24T15:56:13.611Z,22.60
2023-05-24T15:58:41.603Z,22.50
2023-05-24T16:01:09.906Z,22.50
2023-05-24T16:03:38.287Z,22.40
2023-05-24T16:06:08.633Z,22.40
2023-05-24T16:08:36.649Z,22.40
2023-05-24T16:11:08.135Z,22.40
2023-05-24T16:13:36.343Z,22.30
2023-05-24T16:16:04.622Z,22.30
2023-05-24T16:18:34.654Z,22.40
2023-05-24T16:21:02.895Z,22.40
2023-05-24T16:23:32.259Z,22.40
2023-05-24T16:26:00.587Z,22.40
2023-05-24T16:28:29.291Z,22.40
2023-05-24T16:30:58.642Z,22.50
2023-05-24T16:33:26.790Z,22.40
2023-05-24T16:36:00.520Z,22.50
2023-05-24T16:38:30.089Z,22.50
2023-05-24T16:40:59.432Z,22.50
2023-05-24T16:43:27.416Z,22.50
2023-05-24T16:45:56.101Z,22.50
2023-05-24T16:48:28.222Z,22.50
2023-05-24T16:50:57.035Z,22.60
2023-05-24T16:53:26.188Z,22.60
2023-05-24T16:55:55.705Z,22.60
2023-05-24T16:58:28.744Z,22.70
2023-05-24T17:00:56.879Z,22.70
2023-05-24T17:03:28.338Z,22.70
2023-05-24T17:06:01.923Z,22.70
2023-05-24T17:08:32.189Z,22.70
2023-05-24T17:11:00.165Z,22.70
2023-05-24T17:13:29.607Z,22.70
2023-05-24T17:15:59.752Z,22.70
2023-05-24T17:18:31.097Z,22.60
2023-05-24T17:21:01.304Z,22.60
2023-05-24T17:23:31.701Z,22.60
2023-05-24T17:26:01.015Z,22.50
2023-05-24T17:28:31.051Z,22.50
2023-05-24T17:31:00.987Z,22.50
2023-05-24T17:33:31.372Z,22.50
2023-05-24T17:36:02.590Z,22.50
2023-05-24T17:38:32.979Z,22.40
2023-05-24T17:41:01.297Z,22.40
2023-05-24T17:43:32.445Z,22.40
2023-05-24T17:46:06.325Z,22.40
2023-05-24T17:48:36.244Z,22.30
2023-05-24T17:51:06.912Z,22.30
2023-05-24T17:53:35.644Z,22.30
2023-05-24T17:56:05.127Z,22.30
2023-05-24T17:58:37.197Z,22.30
2023-05-24T18:01:06.964Z,22.20
2023-05-24T18:03:37.692Z,22.20
2023-05-24T18:06:07.909Z,22.00
2023-05-24T18:08:42.375Z,22.00
2023-05-24T18:11:12.560Z,21.90
2023-05-24T18:13:43.407Z,21.90
2023-05-24T18:16:12.489Z,21.80
2023-05-24T18:18:40.825Z,21.80
2023-05-24T18:21:09.485Z,21.70
2023-05-24T18:23:38.466Z,21.60
2023-05-24T18:26:08.646Z,21.50
2023-05-24T18:28:37.879Z,21.50
2023-05-24T18:31:10.210Z,21.50
2023-05-24T18:33:38.702Z,21.50
2023-05-24T18:36:07.493Z,21.40
2023-05-24T18:38:36.405Z,21.40
2023-05-24T18:41:06.575Z,21.40
2023-05-24T18:43:34.734Z,21.30
2023-05-24T18:46:02.824Z,21.30
2023-05-24T18:48:32.261Z,21.30
2023-05-24T18:51:00.348Z,21.20
2023-05-24T18:53:28.334Z,21.10
2023-05-24T18:55:56.338Z,21.00
2023-05-24T18:58:24.313Z,21.00
2023-05-24T19:00:52.397Z,20.90
2023-05-24T19:03:22.260Z,20.90
2023-05-24T19:05:51.803Z,20.80
2023-05-24T19:08:19.877Z,20.70
2023-05-24T19:10:47.891Z,20.70
2023-05-24T19:13:16.337Z,20.60
2023-05-24T19:15:44.599Z,20.50
2023-05-24T19:18:12.758Z,20.50
2023-05-24T19:20:40.780Z,20.40
2023-05-24T19:23:10.132Z,20.30
2023-05-24T19:25:41.939Z,20.20
2023-05-24T19:28:11.958Z,20.10
2023-05-24T19:30:40.038Z,20.00
2023-05-24T19:33:08.165Z,19.90
2023-05-24T19:35:36.636Z,19.90
2023-05-24T19:38:04.816Z,19.80
2023-05-24T19:40:34.154Z,19.70
2023-05-24T19:43:02.241Z,19.60
2023-05-24T19:45:30.278Z,19.50
2023-05-24T19:47:58.374Z,19.50
2023-05-24T19:50:29.011Z,19.40
2023-05-24T19:52:58.601Z,19.40
2023-05-24T19:55:26.582Z,19.30
2023-05-24T19:57:55.957Z,19.20
2023-05-24T20:00:24.048Z,19.10
2023-05-24T20:02:52.147Z,19.10
2023-05-24T20:05:20.220Z,19.00
2023-05-24T20:07:48.236Z,18.90
2023-05-24T20:10:16.229Z,18.90
2023-05-24T20:12:44.249Z,18.80
2023-05-24T20:15:17.189Z,18.70
2023-05-24T20:17:46.484Z,18.60
2023-05-24T20:20:14.822Z,18.60
2023-05-24T20:22:42.910Z,18.50
2023-05-24T20:25:11.343Z,18.40
2023-05-24T20:27:41.765Z,18.40
2023-05-24T20:30:10.893Z,18.30
2023-05-24T20:32:40.355Z,18.20
2023-05-24T20:35:10.004Z,18.10
2023-05-24T20:37:38.155Z,18.10
2023-05-24T20:40:08.794Z,18.00
2023-05-24T20:43:02.478Z,17.90
2023-05-24T20:45:30.924Z,17.80
2023-05-24T20:48:00.592Z,17.80
2023-05-24T20:50:28.784Z,17.70
2023-05-24T20:52:56.996Z,18.10
2023-05-24T20:55:26.737Z,17.60
2023-05-24T20:57:55.298Z,17.50
2023-05-24T21:00:23.298Z,17.50
2023-05-24T21:02:51.402Z,17.40
2023-05-24T21:05:20.892Z,17.30
2023-05-24T21:07:48.888Z,17.30
2023-05-24T21:10:19.304Z,17.30
2023-05-24T21:12:47.962Z,17.20
2023-05-24T21:15:16.188Z,17.10
2023-05-24T21:17:44.243Z,17.10
2023-05-24T21:20:12.867Z,17.00
2023-05-24T21:22:42.526Z,16.90
2023-05-24T21:25:11.120Z,16.90
2023-05-24T21:27:39.128Z,16.80
2023-05-24T21:30:09.294Z,16.80
2023-05-24T21:32:37.346Z,16.70
2023-05-24T21:35:06.509Z,16.70
2023-05-24T21:37:34.537Z,16.70
2023-05-24T21:40:05.134Z,16.60
2023-05-24T21:42:33.333Z,16.50
2023-05-24T21:45:01.358Z,16.50
2023-05-24T21:47:29.390Z,16.50
2023-05-24T21:49:57.860Z,16.40
2023-05-24T21:52:25.816Z,16.30
2023-05-24T21:54:53.847Z,16.30
2023-05-24T21:57:26.244Z,16.20
2023-05-24T21:59:54.498Z,16.20
2023-05-24T22:02:22.571Z,16.10
2023-05-24T22:04:50.614Z,16.10
2023-05-24T22:07:18.602Z,16.10
2023-05-24T22:09:46.931Z,16.00
2023-05-24T22:12:15.021Z,16.00
2023-05-24T22:14:44.421Z,15.90
2023-05-24T22:17:14.131Z,15.90
2023-05-24T22:19:42.156Z,15.80
2023-05-24T22:22:10.341Z,15.80
2023-05-24T22:24:38.354Z,15.70
2023-05-24T22:27:09.697Z,15.70
2023-05-24T22:29:37.770Z,15.60
2023-05-24T22:32:07.524Z,15.60
2023-05-24T22:34:35.802Z,15.60
2023-05-24T22:37:03.874Z,15.50
2023-05-24T22:39:32.118Z,15.50
2023-05-24T22:42:00.222Z,15.40
2023-05-24T22:44:28.225Z,15.40
2023-05-24T22:46:56.411Z,15.40
2023-05-24T22:49:29.596Z,15.30
2023-05-24T22:51:57.765Z,15.30
2023-05-24T22:54:25.938Z,15.20
2023-05-24T22:56:54.070Z,15.20
2023-05-24T22:59:22.155Z,15.20
2023-05-24T23:01:50.348Z,15.10
2023-05-24T23:04:21.112Z,15.10
2023-05-24T23:06:53.486Z,15.00
2023-05-24T23:09:28.992Z,15.00
2023-05-24T23:11:58.422Z,14.90
2023-05-24T23:14:30.221Z,14.90
2023-05-24T23:17:02.555Z,14.80
2023-05-24T23:19:31.112Z,14.80
2023-05-24T23:22:03.397Z,14.70
2023-05-24T23:24:31.688Z,14.70
2023-05-24T23:26:59.971Z,14.70
2023-05-24T23:29:28.089Z,14.60
2023-05-24T23:31:56.121Z,14.60
2023-05-24T23:34:24.175Z,14.50
2023-05-24T23:36:52.227Z,14.50
2023-05-24T23:39:21.637Z,14.40
2023-05-24T23:41:49.645Z,14.40
2023-05-24T23:44:17.678Z,14.40
2023-05-24T23:46:45.875Z,14.30
2023-05-24T23:49:13.889Z,14.30
2023-05-24T23:51:41.907Z,14.20
2023-05-24T23:54:09.911Z,14.20
2023-05-24T23:56:39.412Z,14.20
2023-05-24T23:59:07.577Z,14.10
